Time;durP1;ratioP1;P1;durP2;ratioP2;P2;SDS_P1;SDS_P2;PMS_P1;PMS_P2;Temp;Humidity;BMP_temperature;BMP_pressure;BME280_temperature;BME280_humidity;BME280_pressure;Samples;Min_cycle;Max_cycle;Signal;HPM_P1;HPM_P2
2022/01/06 00:00:08;;;;;;;0.60;0.60;;;;;;;;;;5003623;28;20575;-63
2022/01/06 00:02:35;;;;;;;0.60;0.60;;;;;;;;;;5004435;28;20262;-63
2022/01/06 00:05:01;;;;;;;0.60;0.60;;;;;;;;;;5004755;28;20176;-64
2022/01/06 00:07:28;;;;;;;0.57;0.57;;;;;;;;;;5002939;28;20255;-64
2022/01/06 00:09:54;;;;;;;0.50;0.50;;;;;;;;;;5004553;28;20178;-64
2022/01/06 00:12:25;;;;;;;0.40;0.40;;;;;;;;;;5004512;28;20654;-64
2022/01/06 00:17:25;;;;;;;0.60;0.60;;;;;;;;;;5004119;28;20188;-64
2022/01/06 00:25:20;;;;;;;0.60;0.60;;;;;;;;;;5003288;28;20225;-64
2022/01/06 00:27:46;;;;;;;0.60;0.60;;;;;;;;;;5004041;28;20635;-64
2022/01/06 00:30:12;;;;;;;0.60;0.60;;;;;;;;;;5004868;28;20970;-63
2022/01/06 00:32:38;;;;;;;0.60;0.60;;;;;;;;;;5002993;28;20413;-63
2022/01/06 00:35:04;;;;;;;0.50;0.50;;;;;;;;;;5004424;28;20181;-63
2022/01/06 00:37:30;;;;;;;0.52;0.52;;;;;;;;;;5004242;28;20433;-62
2022/01/06 00:39:56;;;;;;;0.60;0.60;;;;;;;;;;5003518;28;20873;-63
2022/01/06 00:42:22;;;;;;;0.60;0.60;;;;;;;;;;5003507;28;20401;-64
2022/01/06 00:44:48;;;;;;;0.60;0.60;;;;;;;;;;4999470;28;20409;-64
2022/01/06 00:47:14;;;;;;;0.50;0.50;;;;;;;;;;4994521;28;20824;-64
2022/01/06 00:49:39;;;;;;;0.50;0.50;;;;;;;;;;4995011;28;20753;-64
2022/01/06 00:52:06;;;;;;;0.60;0.60;;;;;;;;;;4994893;28;20976;-64
2022/01/06 00:54:34;;;;;;;0.50;0.50;;;;;;;;;;4993723;28;20443;-64
2022/01/06 00:57:00;;;;;;;0.50;0.50;;;;;;;;;;4994950;28;20178;-64
2022/01/06 00:59:26;;;;;;;0.60;0.60;;;;;;;;;;4997095;28;20203;-64
2022/01/06 01:01:52;;;;;;;0.50;0.50;;;;;;;;;;5014364;28;20654;-64
2022/01/06 01:04:18;;;;;;;0.50;0.50;;;;;;;;;;5014158;28;20459;-64
2022/01/06 01:06:43;;;;;;;0.70;0.70;;;;;;;;;;5014373;28;20479;-64
2022/01/06 01:09:09;;;;;;;0.60;0.60;;;;;;;;;;5014039;28;20427;-64
2022/01/06 01:11:37;;;;;;;0.50;0.50;;;;;;;;;;5014109;28;20431;-64
2022/01/06 01:14:26;;;;;;;0.60;0.60;;;;;;;;;;5013896;28;20423;-64
2022/01/06 01:16:55;;;;;;;0.60;0.60;;;;;;;;;;5014101;28;20175;-64
2022/01/06 01:19:22;;;;;;;0.50;0.50;;;;;;;;;;5013854;28;20283;-64
2022/01/06 01:21:48;;;;;;;0.55;0.55;;;;;;;;;;5014400;28;20858;-64
2022/01/06 01:24:14;;;;;;;0.55;0.55;;;;;;;;;;5013972;28;20694;-64
2022/01/06 01:26:40;;;;;;;0.57;0.57;;;;;;;;;;5013949;28;20178;-64
2022/01/06 01:29:14;;;;;;;0.60;0.60;;;;;;;;;;5013638;28;20223;-64
2022/01/06 01:31:47;;;;;;;0.50;0.50;;;;;;;;;;5013835;28;20182;-64
2022/01/06 01:34:13;;;;;;;0.65;0.65;;;;;;;;;;5013443;28;20687;-64
2022/01/06 01:36:39;;;;;;;0.50;0.50;;;;;;;;;;5013597;28;20200;-64
2022/01/06 01:39:06;;;;;;;0.57;0.57;;;;;;;;;;5013502;28;20203;-64
2022/01/06 01:41:32;;;;;;;0.70;0.70;;;;;;;;;;5013572;28;20206;-64
2022/01/06 01:43:58;;;;;;;0.60;0.60;;;;;;;;;;5013360;28;20182;-64
2022/01/06 01:46:30;;;;;;;0.40;0.40;;;;;;;;;;5013478;28;20172;-64
2022/01/06 01:49:15;;;;;;;0.50;0.50;;;;;;;;;;5012148;28;20860;-64
2022/01/06 01:51:42;;;;;;;0.60;0.60;;;;;;;;;;5013399;28;20174;-64
2022/01/06 01:54:08;;;;;;;0.50;0.50;;;;;;;;;;5013123;28;20186;-64
2022/01/06 01:56:34;;;;;;;0.60;0.60;;;;;;;;;;5013223;28;20180;-64
2022/01/06 01:59:00;;;;;;;0.50;0.50;;;;;;;;;;5012942;28;20289;-64
2022/01/06 02:01:26;;;;;;;0.60;0.60;;;;;;;;;;5013091;28;20212;-64
2022/01/06 02:03:52;;;;;;;0.60;0.60;;;;;;;;;;5012908;28;20413;-64
2022/01/06 02:06:19;;;;;;;0.60;0.60;;;;;;;;;;5013058;28;20922;-64
2022/01/06 02:08:45;;;;;;;0.60;0.60;;;;;;;;;;5013005;28;20520;-64
2022/01/06 02:11:11;;;;;;;0.50;0.50;;;;;;;;;;5013007;28;20203;-64
2022/01/06 02:13:50;;;;;;;0.57;0.57;;;;;;;;;;5012673;28;20174;-64
2022/01/06 02:16:20;;;;;;;0.63;0.63;;;;;;;;;;5012322;28;20275;-64
2022/01/06 02:18:46;;;;;;;0.52;0.52;;;;;;;;;;5012925;28;20208;-64
2022/01/06 02:21:12;;;;;;;0.50;0.50;;;;;;;;;;5011526;28;20186;-64
2022/01/06 02:23:38;;;;;;;0.70;0.70;;;;;;;;;;5012600;28;20175;-64
2022/01/06 02:26:04;;;;;;;0.50;0.50;;;;;;;;;;5012751;28;20405;-64
2022/01/06 02:28:29;;;;;;;0.60;0.60;;;;;;;;;;5012486;28;20446;-64
2022/01/06 02:30:57;;;;;;;0.60;0.60;;;;;;;;;;5012776;28;20179;-64
2022/01/06 02:33:24;;;;;;;0.70;0.70;;;;;;;;;;5012341;28;20420;-64
2022/01/06 02:35:50;;;;;;;0.50;0.50;;;;;;;;;;5012699;28;20175;-64
2022/01/06 02:38:17;;;;;;;0.50;0.50;;;;;;;;;;5012420;28;20332;-64
2022/01/06 02:40:43;;;;;;;0.60;0.60;;;;;;;;;;5012460;28;20860;-64
2022/01/06 02:43:09;;;;;;;0.60;0.60;;;;;;;;;;5012232;28;20182;-64
2022/01/06 02:45:36;;;;;;;0.50;0.50;;;;;;;;;;5011930;28;20171;-64
2022/01/06 02:48:08;;;;;;;0.50;0.50;;;;;;;;;;5012297;28;20192;-64
2022/01/06 02:50:34;;;;;;;0.60;0.60;;;;;;;;;;5012444;28;20179;-64
2022/01/06 02:53:00;;;;;;;0.50;0.50;;;;;;;;;;5012128;28;20187;-64
2022/01/06 02:55:26;;;;;;;0.50;0.50;;;;;;;;;;5012314;28;20186;-64
2022/01/06 02:57:52;;;;;;;0.57;0.57;;;;;;;;;;5012070;28;20493;-64
2022/01/06 03:00:18;;;;;;;0.50;0.50;;;;;;;;;;5012008;28;20540;-64
2022/01/06 03:02:46;;;;;;;0.60;0.60;;;;;;;;;;5012126;28;20433;-64
2022/01/06 03:05:13;;;;;;;0.50;0.50;;;;;;;;;;5012311;28;20404;-64
2022/01/06 03:07:39;;;;;;;0.50;0.50;;;;;;;;;;5012129;28;20199;-64
2022/01/06 03:10:08;;;;;;;0.50;0.50;;;;;;;;;;5012117;28;20213;-64
2022/01/06 03:12:39;;;;;;;0.50;0.50;;;;;;;;;;5010910;28;20187;-64
2022/01/06 03:15:06;;;;;;;0.50;0.50;;;;;;;;;;5004265;28;20182;-64
2022/01/06 03:17:32;;;;;;;0.50;0.50;;;;;;;;;;5012026;28;20293;-64
2022/01/06 03:19:58;;;;;;;0.50;0.50;;;;;;;;;;5011820;28;20288;-64
2022/01/06 03:22:24;;;;;;;0.60;0.60;;;;;;;;;;5011871;28;20403;-64
2022/01/06 03:24:50;;;;;;;0.60;0.60;;;;;;;;;;5011804;28;20717;-64
2022/01/06 03:27:16;;;;;;;0.50;0.50;;;;;;;;;;5011529;28;20898;-64
2022/01/06 03:29:42;;;;;;;0.50;0.50;;;;;;;;;;5010861;28;20807;-64
2022/01/06 03:32:08;;;;;;;0.60;0.60;;;;;;;;;;5011831;28;20423;-64
2022/01/06 03:34:34;;;;;;;0.60;0.60;;;;;;;;;;5011480;28;20415;-64
2022/01/06 03:37:02;;;;;;;0.55;0.55;;;;;;;;;;5011774;28;20412;-64
2022/01/06 03:39:28;;;;;;;0.50;0.50;;;;;;;;;;5011564;28;20201;-64
2022/01/06 03:41:54;;;;;;;0.60;0.60;;;;;;;;;;5011519;28;20183;-64
2022/01/06 03:44:20;;;;;;;0.60;0.60;;;;;;;;;;5011524;28;20440;-64
2022/01/06 03:46:46;;;;;;;0.60;0.60;;;;;;;;;;5011624;28;20436;-64
2022/01/06 03:49:12;;;;;;;0.60;0.60;;;;;;;;;;5010180;28;20999;-64
2022/01/06 03:51:38;;;;;;;0.60;0.60;;;;;;;;;;5011536;28;20173;-64
2022/01/06 03:54:04;;;;;;;0.60;0.60;;;;;;;;;;5011296;28;20489;-64
2022/01/06 03:56:30;;;;;;;0.50;0.50;;;;;;;;;;5011335;28;20270;-64
2022/01/06 03:58:56;;;;;;;0.70;0.70;;;;;;;;;;5011538;28;20454;-64
2022/01/06 04:01:22;;;;;;;0.60;0.60;;;;;;;;;;4992199;28;20427;-64
2022/01/06 04:03:48;;;;;;;0.60;0.60;;;;;;;;;;4991628;28;20420;-64
2022/01/06 04:06:17;;;;;;;0.50;0.50;;;;;;;;;;4990585;28;20189;-64
2022/01/06 04:08:44;;;;;;;0.60;0.60;;;;;;;;;;4991709;28;20431;-64
2022/01/06 04:11:10;;;;;;;0.60;0.60;;;;;;;;;;4991877;28;20182;-64
2022/01/06 04:13:36;;;;;;;0.52;0.52;;;;;;;;;;4991682;28;20180;-64
2022/01/06 04:16:03;;;;;;;0.50;0.50;;;;;;;;;;4991825;28;20170;-64
2022/01/06 04:18:29;;;;;;;0.50;0.50;;;;;;;;;;4991661;28;20565;-64
2022/01/06 04:20:55;;;;;;;0.60;0.60;;;;;;;;;;4991748;28;20177;-64
2022/01/06 04:23:21;;;;;;;0.52;0.52;;;;;;;;;;4991351;28;20185;-64
2022/01/06 04:25:47;;;;;;;0.60;0.60;;;;;;;;;;4991677;28;20179;-64
2022/01/06 04:28:13;;;;;;;0.50;0.50;;;;;;;;;;5023239;22;20490;-61
2022/01/06 04:30:39;;;;;;;0.50;0.50;;;;;;;;;;5033546;28;20417;-62
2022/01/06 04:33:05;;;;;;;0.50;0.50;;;;;;;;;;5050894;28;20619;-62
2022/01/06 04:35:31;;;;;;;0.50;0.50;;;;;;;;;;5050899;28;20926;-62
2022/01/06 04:37:57;;;;;;;0.50;0.50;;;;;;;;;;5050734;28;20417;-60
2022/01/06 04:40:23;;;;;;;0.60;0.60;;;;;;;;;;5034612;28;20720;-62
2022/01/06 04:42:49;;;;;;;0.60;0.60;;;;;;;;;;5053974;28;20176;-62
2022/01/06 04:45:15;;;;;;;0.60;0.60;;;;;;;;;;5054701;28;20483;-61
2022/01/06 04:47:41;;;;;;;0.60;0.60;;;;;;;;;;5054258;28;20180;-61
2022/01/06 04:50:07;;;;;;;0.50;0.50;;;;;;;;;;5054189;28;20194;-62
2022/01/06 04:52:33;;;;;;;0.60;0.60;;;;;;;;;;5054039;28;20219;-60
2022/01/06 04:54:59;;;;;;;0.60;0.60;;;;;;;;;;5054338;28;20663;-61
2022/01/06 04:57:25;;;;;;;0.60;0.60;;;;;;;;;;5054274;28;20415;-61
2022/01/06 04:59:51;;;;;;;0.60;0.60;;;;;;;;;;5054281;28;20212;-61
2022/01/06 05:02:17;;;;;;;0.50;0.50;;;;;;;;;;5054134;28;20517;-61
2022/01/06 05:04:43;;;;;;;0.50;0.50;;;;;;;;;;5054097;28;20399;-61
2022/01/06 05:07:09;;;;;;;0.60;0.60;;;;;;;;;;5054089;28;20168;-61
2022/01/06 05:09:35;;;;;;;0.55;0.55;;;;;;;;;;5054037;28;20281;-60
2022/01/06 05:12:01;;;;;;;0.70;0.70;;;;;;;;;;5053736;28;20175;-61
2022/01/06 05:14:27;;;;;;;0.50;0.50;;;;;;;;;;5054006;28;20779;-60
2022/01/06 05:16:56;;;;;;;0.50;0.50;;;;;;;;;;5053614;28;20178;-61
2022/01/06 05:19:22;;;;;;;0.50;0.50;;;;;;;;;;5053933;28;20263;-61
2022/01/06 05:21:48;;;;;;;0.60;0.60;;;;;;;;;;5054065;28;20178;-60
2022/01/06 05:24:15;;;;;;;0.50;0.50;;;;;;;;;;5053509;28;20174;-59
2022/01/06 05:26:42;;;;;;;0.60;0.60;;;;;;;;;;5053495;28;20436;-62
2022/01/06 05:29:12;;;;;;;0.50;0.50;;;;;;;;;;5053431;28;20278;-61
2022/01/06 05:31:38;;;;;;;0.50;0.50;;;;;;;;;;5053389;28;20666;-60
2022/01/06 05:34:04;;;;;;;0.50;0.50;;;;;;;;;;5053196;28;20214;-62
2022/01/06 05:36:31;;;;;;;0.50;0.50;;;;;;;;;;5053385;28;20176;-61
2022/01/06 05:38:57;;;;;;;0.50;0.50;;;;;;;;;;5053238;28;20248;-60
2022/01/06 05:41:22;;;;;;;0.63;0.63;;;;;;;;;;5053516;28;20513;-61
2022/01/06 05:43:49;;;;;;;0.50;0.50;;;;;;;;;;5052967;28;20176;-60
2022/01/06 05:46:16;;;;;;;0.60;0.60;;;;;;;;;;5053073;28;20881;-62
2022/01/06 05:48:42;;;;;;;0.60;0.60;;;;;;;;;;5053258;28;20717;-61
2022/01/06 05:51:08;;;;;;;0.50;0.50;;;;;;;;;;5052425;28;20181;-60
2022/01/06 05:53:34;;;;;;;0.63;0.63;;;;;;;;;;5053022;28;20406;-62
2022/01/06 05:56:00;;;;;;;0.50;0.50;;;;;;;;;;5053126;28;20235;-59
2022/01/06 05:58:26;;;;;;;0.50;0.50;;;;;;;;;;5053152;28;20189;-61
2022/01/06 06:00:52;;;;;;;0.60;0.60;;;;;;;;;;5047330;28;20471;-61
2022/01/06 06:03:18;;;;;;;0.53;0.53;;;;;;;;;;5042741;28;20429;-62
2022/01/06 06:05:44;;;;;;;0.60;0.60;;;;;;;;;;5051112;28;20469;-61
2022/01/06 06:08:11;;;;;;;0.60;0.60;;;;;;;;;;5035757;28;20503;-61
2022/01/06 06:10:37;;;;;;;0.57;0.57;;;;;;;;;;5031411;28;20436;-61
2022/01/06 06:13:03;;;;;;;0.50;0.50;;;;;;;;;;5033143;28;20293;-60
2022/01/06 06:15:34;;;;;;;0.50;0.50;;;;;;;;;;5035110;28;20181;-61
2022/01/06 06:18:00;;;;;;;0.50;0.50;;;;;;;;;;5033396;28;20273;-62
2022/01/06 06:20:26;;;;;;;0.52;0.52;;;;;;;;;;5032949;28;20279;-61
2022/01/06 06:22:52;;;;;;;0.50;0.50;;;;;;;;;;5032322;28;20267;-60
2022/01/06 06:25:18;;;;;;;0.50;0.50;;;;;;;;;;5014910;28;20426;-59
2022/01/06 06:27:44;;;;;;;0.50;0.50;;;;;;;;;;5032439;28;20418;-59
2022/01/06 06:30:10;;;;;;;0.60;0.60;;;;;;;;;;5032250;28;20615;-60
2022/01/06 06:32:36;;;;;;;0.50;0.50;;;;;;;;;;5032097;28;20439;-60
2022/01/06 06:35:03;;;;;;;0.60;0.60;;;;;;;;;;5032243;28;20254;-58
2022/01/06 06:37:29;;;;;;;0.55;0.55;;;;;;;;;;5032374;28;20416;-58
2022/01/06 06:39:56;;;;;;;0.60;0.60;;;;;;;;;;5032257;28;20219;-58
2022/01/06 06:42:22;;;;;;;0.60;0.60;;;;;;;;;;5032791;28;20178;-61
2022/01/06 06:44:48;;;;;;;0.50;0.50;;;;;;;;;;5032003;28;20218;-58
2022/01/06 06:47:14;;;;;;;0.53;0.53;;;;;;;;;;5032344;28;20169;-61
2022/01/06 06:49:40;;;;;;;0.60;0.60;;;;;;;;;;5032043;28;20436;-60
2022/01/06 06:52:06;;;;;;;0.60;0.60;;;;;;;;;;5032145;28;20410;-60
2022/01/06 06:54:32;;;;;;;0.60;0.60;;;;;;;;;;5032010;28;20187;-59
2022/01/06 06:56:58;;;;;;;0.50;0.50;;;;;;;;;;5048139;28;20229;-59
2022/01/06 06:59:24;;;;;;;0.50;0.50;;;;;;;;;;5048179;28;20668;-61
2022/01/06 07:01:50;;;;;;;0.60;0.60;;;;;;;;;;5014082;28;20240;-61
2022/01/06 07:04:16;;;;;;;0.60;0.60;;;;;;;;;;5031729;28;20179;-61
2022/01/06 07:06:42;;;;;;;0.60;0.60;;;;;;;;;;5031983;28;20418;-61
2022/01/06 07:09:08;;;;;;;0.60;0.60;;;;;;;;;;5032033;28;20444;-61
2022/01/06 07:11:34;;;;;;;0.60;0.60;;;;;;;;;;5032027;28;20548;-60
2022/01/06 07:14:00;;;;;;;0.60;0.60;;;;;;;;;;5037924;28;20186;-61
2022/01/06 07:16:26;;;;;;;0.50;0.50;;;;;;;;;;5043139;28;20189;-60
2022/01/06 07:18:52;;;;;;;0.67;0.67;;;;;;;;;;5033572;28;20563;-60
2022/01/06 07:21:18;;;;;;;0.50;0.50;;;;;;;;;;5052324;28;20412;-58
2022/01/06 07:23:44;;;;;;;0.50;0.50;;;;;;;;;;5051793;28;20407;-61
2022/01/06 07:26:10;;;;;;;0.50;0.50;;;;;;;;;;5051788;28;20432;-62
2022/01/06 07:28:36;;;;;;;0.60;0.60;;;;;;;;;;5051297;28;20455;-60
2022/01/06 07:31:04;;;;;;;0.70;0.70;;;;;;;;;;5051776;28;20878;-60
2022/01/06 07:33:30;;;;;;;0.60;0.60;;;;;;;;;;5051448;28;20192;-61
2022/01/06 07:35:56;;;;;;;0.50;0.50;;;;;;;;;;5051508;28;20173;-61
2022/01/06 07:38:22;;;;;;;0.60;0.60;;;;;;;;;;5051559;28;20190;-61
2022/01/06 07:40:48;;;;;;;0.60;0.60;;;;;;;;;;5051682;28;20582;-60
2022/01/06 07:43:14;;;;;;;0.50;0.50;;;;;;;;;;5051254;28;20405;-61
2022/01/06 07:45:40;;;;;;;0.50;0.50;;;;;;;;;;5051437;28;20411;-61
2022/01/06 07:48:15;;;;;;;0.55;0.55;;;;;;;;;;5051813;28;20403;-59
2022/01/06 07:50:41;;;;;;;0.50;0.50;;;;;;;;;;5051588;28;20248;-60
2022/01/06 07:53:07;;;;;;;0.60;0.60;;;;;;;;;;5051236;28;20187;-60
2022/01/06 07:55:33;;;;;;;0.53;0.53;;;;;;;;;;5047045;28;20545;-61
2022/01/06 07:57:59;;;;;;;0.50;0.50;;;;;;;;;;5050076;28;20764;-60
2022/01/06 08:00:25;;;;;;;0.60;0.60;;;;;;;;;;5051175;28;20950;-61
2022/01/06 08:02:51;;;;;;;0.50;0.50;;;;;;;;;;5051024;28;20440;-61
2022/01/06 08:05:20;;;;;;;0.60;0.60;;;;;;;;;;5046969;28;20430;-59
2022/01/06 08:07:46;;;;;;;0.60;0.60;;;;;;;;;;5051233;28;20170;-59
2022/01/06 08:10:12;;;;;;;0.50;0.50;;;;;;;;;;5050650;28;20744;-61
2022/01/06 08:12:38;;;;;;;0.50;0.50;;;;;;;;;;5050674;28;20416;-60
2022/01/06 08:15:05;;;;;;;0.60;0.60;;;;;;;;;;5052909;28;20185;-62
2022/01/06 08:17:31;;;;;;;0.60;0.60;;;;;;;;;;5054823;28;20267;-60
2022/01/06 08:19:57;;;;;;;0.60;0.60;;;;;;;;;;5055312;28;20275;-58
2022/01/06 08:22:23;;;;;;;0.60;0.60;;;;;;;;;;5054807;28;20390;-59
2022/01/06 08:24:52;;;;;;;0.60;0.60;;;;;;;;;;5054678;28;20170;-60
2022/01/06 08:27:18;;;;;;;0.60;0.60;;;;;;;;;;5037923;28;20172;-61
2022/01/06 08:29:44;;;;;;;0.60;0.60;;;;;;;;;;5042239;28;20225;-59
2022/01/06 08:32:10;;;;;;;0.50;0.50;;;;;;;;;;5045789;28;20223;-62
2022/01/06 08:34:36;;;;;;;0.50;0.50;;;;;;;;;;5053176;28;20185;-59
2022/01/06 08:37:02;;;;;;;0.50;0.50;;;;;;;;;;5053423;28;20190;-60
2022/01/06 08:39:28;;;;;;;0.60;0.60;;;;;;;;;;5053954;28;20212;-61
2022/01/06 08:41:54;;;;;;;0.60;0.60;;;;;;;;;;5054672;28;20227;-60
2022/01/06 08:44:21;;;;;;;0.60;0.60;;;;;;;;;;5035927;28;20716;-62
2022/01/06 08:46:48;;;;;;;0.60;0.60;;;;;;;;;;5054160;28;20428;-60
2022/01/06 08:49:17;;;;;;;0.60;0.60;;;;;;;;;;5055140;28;20210;-61
2022/01/06 08:51:43;;;;;;;0.50;0.50;;;;;;;;;;5054053;28;20688;-61
2022/01/06 08:54:11;;;;;;;0.50;0.50;;;;;;;;;;5053629;28;20255;-62
2022/01/06 08:56:37;;;;;;;0.50;0.50;;;;;;;;;;5050464;28;20221;-60
2022/01/06 08:59:04;;;;;;;0.60;0.60;;;;;;;;;;5046535;28;20302;-62
2022/01/06 09:01:30;;;;;;;0.50;0.50;;;;;;;;;;5047895;28;20428;-62
2022/01/06 09:03:56;;;;;;;0.60;0.60;;;;;;;;;;5044009;28;20243;-60
2022/01/06 09:06:22;;;;;;;0.60;0.60;;;;;;;;;;5035062;28;20172;-62
2022/01/06 09:08:48;;;;;;;0.60;0.60;;;;;;;;;;5053869;28;20798;-61
2022/01/06 09:11:14;;;;;;;0.60;0.60;;;;;;;;;;5045205;28;20421;-62
2022/01/06 09:13:41;;;;;;;0.50;0.50;;;;;;;;;;5049046;28;20184;-61
2022/01/06 09:16:08;;;;;;;0.60;0.60;;;;;;;;;;5054146;28;20173;-61
2022/01/06 09:18:34;;;;;;;0.50;0.50;;;;;;;;;;5053699;28;20197;-61
2022/01/06 09:21:00;;;;;;;0.52;0.52;;;;;;;;;;5054062;28;20211;-61
2022/01/06 09:23:26;;;;;;;0.60;0.60;;;;;;;;;;5054034;28;20168;-60
2022/01/06 09:25:52;;;;;;;0.60;0.60;;;;;;;;;;5054090;28;20404;-60
2022/01/06 09:28:18;;;;;;;0.50;0.50;;;;;;;;;;5053839;28;20444;-62
2022/01/06 09:30:44;;;;;;;0.60;0.60;;;;;;;;;;5053904;28;20421;-62
2022/01/06 09:33:10;;;;;;;0.50;0.50;;;;;;;;;;5058303;28;20911;-60
2022/01/06 09:35:36;;;;;;;0.50;0.50;;;;;;;;;;5036037;28;20178;-60
2022/01/06 09:38:03;;;;;;;0.60;0.60;;;;;;;;;;5053801;28;20182;-61
2022/01/06 09:40:29;;;;;;;0.50;0.50;;;;;;;;;;5053672;28;20256;-62
2022/01/06 09:42:55;;;;;;;0.50;0.50;;;;;;;;;;5054004;28;20170;-61
2022/01/06 09:45:24;;;;;;;0.50;0.50;;;;;;;;;;5053698;28;20334;-62
2022/01/06 09:47:50;;;;;;;0.60;0.60;;;;;;;;;;5053508;28;20235;-62
2022/01/06 09:50:16;;;;;;;0.50;0.50;;;;;;;;;;5053587;28;20880;-61
2022/01/06 09:52:42;;;;;;;0.60;0.60;;;;;;;;;;5053570;28;20259;-62
2022/01/06 09:55:09;;;;;;;0.50;0.50;;;;;;;;;;5053533;28;20174;-61
2022/01/06 09:57:35;;;;;;;0.50;0.50;;;;;;;;;;5053518;28;20421;-62
2022/01/06 10:00:01;;;;;;;0.50;0.50;;;;;;;;;;5053254;28;20248;-60
2022/01/06 10:02:37;;;;;;;0.60;0.60;;;;;;;;;;5053313;28;20181;-62
2022/01/06 10:05:03;;;;;;;0.60;0.60;;;;;;;;;;5053037;28;20195;-62
2022/01/06 10:07:39;;;;;;;0.60;0.60;;;;;;;;;;5053297;28;20171;-62
2022/01/06 10:10:09;;;;;;;0.60;0.60;;;;;;;;;;5052660;28;20188;-61
2022/01/06 10:12:38;;;;;;;0.50;0.50;;;;;;;;;;5053219;28;20179;-61
2022/01/06 10:15:14;;;;;;;0.50;0.50;;;;;;;;;;5054136;28;20178;-61
2022/01/06 10:17:40;;;;;;;0.50;0.50;;;;;;;;;;5052964;28;20261;-61
2022/01/06 10:20:10;;;;;;;0.60;0.60;;;;;;;;;;5034954;28;20448;-61
2022/01/06 10:22:43;;;;;;;0.50;0.50;;;;;;;;;;5052519;28;20412;-61
2022/01/06 10:25:09;;;;;;;0.70;0.70;;;;;;;;;;5052766;28;20179;-60
2022/01/06 10:27:35;;;;;;;0.60;0.60;;;;;;;;;;5052797;28;20168;-60
2022/01/06 10:30:05;;;;;;;0.50;0.50;;;;;;;;;;5062500;22;20504;-63
2022/01/06 10:32:32;;;;;;;0.60;0.60;;;;;;;;;;5031757;28;20395;-63
2022/01/06 10:35:04;;;;;;;0.60;0.60;;;;;;;;;;5032267;28;20542;-63
2022/01/06 10:37:34;;;;;;;0.55;0.55;;;;;;;;;;5031784;28;20180;-63
2022/01/06 10:40:01;;;;;;;0.50;0.50;;;;;;;;;;5032115;28;20686;-64
2022/01/06 10:42:28;;;;;;;0.50;0.50;;;;;;;;;;5032267;28;20168;-63
2022/01/06 10:45:04;;;;;;;0.50;0.50;;;;;;;;;;5014499;28;20639;-64
2022/01/06 10:47:34;;;;;;;0.50;0.50;;;;;;;;;;5032005;28;20535;-64
2022/01/06 10:50:12;;;;;;;0.50;0.50;;;;;;;;;;5014237;28;20551;-63
2022/01/06 10:52:39;;;;;;;0.50;0.50;;;;;;;;;;5031916;28;20259;-64
2022/01/06 10:55:09;;;;;;;0.60;0.60;;;;;;;;;;5031923;28;20210;-64
2022/01/06 10:57:35;;;;;;;0.50;0.50;;;;;;;;;;5025958;28;20210;-64
2022/01/06 11:00:01;;;;;;;0.60;0.60;;;;;;;;;;5019800;28;20195;-64
2022/01/06 11:02:27;;;;;;;0.60;0.60;;;;;;;;;;5011856;28;20514;-64
2022/01/06 11:04:53;;;;;;;0.53;0.53;;;;;;;;;;5012077;28;20404;-64
2022/01/06 11:07:19;;;;;;;0.50;0.50;;;;;;;;;;5012011;28;20490;-64
2022/01/06 11:09:48;;;;;;;0.50;0.50;;;;;;;;;;5012039;28;20450;-64
2022/01/06 11:12:26;;;;;;;0.60;0.60;;;;;;;;;;5011901;28;20438;-64
2022/01/06 11:14:53;;;;;;;0.60;0.60;;;;;;;;;;5011904;28;20173;-64
2022/01/06 11:17:21;;;;;;;0.52;0.52;;;;;;;;;;5011843;28;20185;-64
2022/01/06 11:19:48;;;;;;;0.60;0.60;;;;;;;;;;5011809;28;20206;-64
2022/01/06 11:22:15;;;;;;;0.60;0.60;;;;;;;;;;5011745;28;20671;-64
2022/01/06 11:24:51;;;;;;;0.50;0.50;;;;;;;;;;5011536;28;20271;-64
2022/01/06 11:27:17;;;;;;;0.55;0.55;;;;;;;;;;5011909;28;20305;-64
2022/01/06 11:29:44;;;;;;;0.60;0.60;;;;;;;;;;5011654;28;20238;-64
2022/01/06 11:32:21;;;;;;;0.60;0.60;;;;;;;;;;5011781;28;20502;-64
2022/01/06 11:35:08;;;;;;;0.50;0.50;;;;;;;;;;5011646;28;20184;-64
2022/01/06 11:37:47;;;;;;;0.60;0.60;;;;;;;;;;4993984;28;20235;-64
2022/01/06 11:40:15;;;;;;;0.60;0.60;;;;;;;;;;5011538;28;20216;-64
2022/01/06 11:42:41;;;;;;;0.60;0.60;;;;;;;;;;5011508;28;20180;-64
2022/01/06 11:45:08;;;;;;;0.50;0.50;;;;;;;;;;5011753;28;20177;-64
2022/01/06 11:47:36;;;;;;;0.60;0.60;;;;;;;;;;5011610;28;20902;-64
2022/01/06 11:50:09;;;;;;;0.60;0.60;;;;;;;;;;5012692;28;20202;-64
2022/01/06 11:52:36;;;;;;;0.52;0.52;;;;;;;;;;5015311;28;20184;-64
2022/01/06 11:55:04;;;;;;;0.60;0.60;;;;;;;;;;5015571;28;20173;-64
2022/01/06 11:57:31;;;;;;;0.60;0.60;;;;;;;;;;5015448;28;20184;-64
2022/01/06 11:59:58;;;;;;;0.60;0.60;;;;;;;;;;5015444;28;20208;-64
2022/01/06 12:02:24;;;;;;;0.50;0.50;;;;;;;;;;5015228;28;20252;-64
2022/01/06 12:04:57;;;;;;;0.60;0.60;;;;;;;;;;5015287;28;20197;-64
2022/01/06 12:07:23;;;;;;;0.55;0.55;;;;;;;;;;5015270;28;20475;-64
2022/01/06 12:09:56;;;;;;;0.50;0.50;;;;;;;;;;5015265;28;20193;-64
2022/01/06 12:12:31;;;;;;;0.50;0.50;;;;;;;;;;5015030;28;20173;-64
2022/01/06 12:15:17;;;;;;;0.40;0.40;;;;;;;;;;5015214;28;20695;-64
2022/01/06 12:17:54;;;;;;;0.40;0.40;;;;;;;;;;4997742;28;20177;-64
2022/01/06 12:20:24;;;;;;;0.40;0.40;;;;;;;;;;5015060;28;20207;-65
2022/01/06 12:22:51;;;;;;;0.40;0.40;;;;;;;;;;5014833;28;20744;-64
2022/01/06 12:25:21;;;;;;;0.50;0.50;;;;;;;;;;4997427;28;20649;-64
2022/01/06 12:27:48;;;;;;;0.43;0.43;;;;;;;;;;5015214;28;20201;-65
2022/01/06 12:30:15;;;;;;;0.50;0.50;;;;;;;;;;5014857;28;20205;-64
2022/01/06 12:32:41;;;;;;;0.50;0.50;;;;;;;;;;5014605;28;20189;-64
2022/01/06 12:35:07;;;;;;;0.50;0.50;;;;;;;;;;5014820;28;20182;-64
2022/01/06 12:37:33;;;;;;;0.50;0.50;;;;;;;;;;5014633;28;20494;-64
2022/01/06 12:40:00;;;;;;;0.50;0.50;;;;;;;;;;5014494;28;20201;-64
2022/01/06 12:42:26;;;;;;;0.50;0.50;;;;;;;;;;5014530;28;20448;-64
2022/01/06 12:44:53;;;;;;;0.50;0.50;;;;;;;;;;5014663;28;20173;-64
2022/01/06 12:47:19;;;;;;;0.50;0.50;;;;;;;;;;5014524;28;20196;-64
2022/01/06 12:49:45;;;;;;;0.50;0.50;;;;;;;;;;5014336;28;20211;-64
2022/01/06 12:52:11;;;;;;;0.57;0.57;;;;;;;;;;5014725;28;20266;-64
2022/01/06 12:54:38;;;;;;;0.50;0.50;;;;;;;;;;5014736;28;20419;-64
2022/01/06 12:57:06;;;;;;;0.60;0.60;;;;;;;;;;5014976;28;20422;-64
2022/01/06 12:59:34;;;;;;;0.50;0.50;;;;;;;;;;5017738;28;20196;-64
2022/01/06 13:02:02;;;;;;;0.50;0.50;;;;;;;;;;5022387;28;20184;-64
2022/01/06 13:04:30;;;;;;;0.50;0.50;;;;;;;;;;5033712;28;20215;-64
2022/01/06 13:06:56;;;;;;;0.50;0.50;;;;;;;;;;5034304;28;20180;-64
2022/01/06 13:09:23;;;;;;;0.50;0.50;;;;;;;;;;5033416;28;20639;-64
2022/01/06 13:11:52;;;;;;;0.55;0.55;;;;;;;;;;5034267;28;20182;-64
2022/01/06 13:14:31;;;;;;;0.57;0.57;;;;;;;;;;5033995;28;20173;-64
2022/01/06 13:17:10;;;;;;;0.50;0.50;;;;;;;;;;5034113;28;20187;-64
2022/01/06 13:19:36;;;;;;;0.50;0.50;;;;;;;;;;5033795;28;20199;-64
2022/01/06 13:22:05;;;;;;;0.60;0.60;;;;;;;;;;5033934;28;20195;-64
2022/01/06 13:24:35;;;;;;;0.50;0.50;;;;;;;;;;5033604;28;20181;-64
2022/01/06 13:27:03;;;;;;;0.50;0.50;;;;;;;;;;5032520;28;20180;-64
2022/01/06 13:29:34;;;;;;;0.50;0.50;;;;;;;;;;5033506;28;20212;-64
2022/01/06 13:32:13;;;;;;;0.60;0.60;;;;;;;;;;5032892;28;20242;-63
2022/01/06 13:34:47;;;;;;;0.50;0.50;;;;;;;;;;5027706;28;20198;-64
2022/01/06 13:37:16;;;;;;;0.60;0.60;;;;;;;;;;5030524;28;20163;-63
2022/01/06 13:39:50;;;;;;;0.50;0.50;;;;;;;;;;5030756;28;20288;-64
2022/01/06 13:42:25;;;;;;;0.50;0.50;;;;;;;;;;5032182;28;20175;-64
2022/01/06 13:44:53;;;;;;;0.50;0.50;;;;;;;;;;5033314;28;20171;-63
2022/01/06 13:47:29;;;;;;;0.50;0.50;;;;;;;;;;5032504;28;20182;-63
2022/01/06 13:52:46;;;;;;;0.50;0.50;;;;;;;;;;5032657;28;20710;-64
2022/01/06 13:55:16;;;;;;;0.50;0.50;;;;;;;;;;5032556;28;20187;-64
2022/01/06 13:57:42;;;;;;;0.60;0.60;;;;;;;;;;5014607;28;20532;-64
2022/01/06 14:00:08;;;;;;;0.50;0.50;;;;;;;;;;5032358;28;20200;-64
2022/01/06 14:02:34;;;;;;;0.60;0.60;;;;;;;;;;5032164;28;20426;-64
2022/01/06 14:05:07;;;;;;;0.50;0.50;;;;;;;;;;5031142;28;20196;-64
2022/01/06 14:07:33;;;;;;;0.60;0.60;;;;;;;;;;5032067;28;20509;-64
2022/01/06 14:09:59;;;;;;;0.50;0.50;;;;;;;;;;5032585;28;20282;-64
2022/01/06 14:12:24;;;;;;;0.60;0.60;;;;;;;;;;5031873;28;20415;-64
2022/01/06 14:14:50;;;;;;;0.50;0.50;;;;;;;;;;5032459;28;20453;-64
2022/01/06 14:17:16;;;;;;;0.60;0.60;;;;;;;;;;5032512;28;20437;-63
2022/01/06 14:19:42;;;;;;;0.50;0.50;;;;;;;;;;5032338;28;20478;-63
2022/01/06 14:22:08;;;;;;;0.50;0.50;;;;;;;;;;5032065;28;20486;-63
2022/01/06 14:24:35;;;;;;;0.50;0.50;;;;;;;;;;5031725;28;20176;-64
2022/01/06 14:27:02;;;;;;;0.50;0.50;;;;;;;;;;5030862;28;20176;-64
2022/01/06 14:29:28;;;;;;;0.60;0.60;;;;;;;;;;5031622;28;20207;-63
2022/01/06 14:31:55;;;;;;;0.50;0.50;;;;;;;;;;5032232;28;20189;-63
2022/01/06 14:34:21;;;;;;;0.60;0.60;;;;;;;;;;5031803;28;20258;-64
2022/01/06 14:36:46;;;;;;;0.50;0.50;;;;;;;;;;5014127;28;20616;-64
2022/01/06 14:39:12;;;;;;;0.60;0.60;;;;;;;;;;5031751;28;20222;-64
2022/01/06 14:41:38;;;;;;;0.60;0.60;;;;;;;;;;5031797;28;20430;-63
2022/01/06 14:44:04;;;;;;;0.50;0.50;;;;;;;;;;5031423;28;20419;-64
2022/01/06 14:46:30;;;;;;;0.50;0.50;;;;;;;;;;5013420;28;20552;-64
2022/01/06 14:48:56;;;;;;;0.50;0.50;;;;;;;;;;5031599;28;20200;-64
2022/01/06 14:51:23;;;;;;;0.60;0.60;;;;;;;;;;5030474;28;20852;-64
2022/01/06 14:53:49;;;;;;;0.50;0.50;;;;;;;;;;5012370;28;20408;-64